createdAt,value
2022-11-14T00:01:28.633Z,20.14
2022-11-14T00:07:53.558Z,20.12
2022-11-14T00:14:15.879Z,20.11
2022-11-14T00:20:35.590Z,20.11
2022-11-14T00:27:01.975Z,20.1
2022-11-14T00:33:21.946Z,20.08
2022-11-14T00:39:50.029Z,20.11
2022-11-14T00:46:15.483Z,20.1
2022-11-14T00:52:39.484Z,20.08
2022-11-14T00:59:00.833Z,20.13
2022-11-14T01:05:23.520Z,20.08
2022-11-14T01:11:49.594Z,20
2022-11-14T01:18:15.778Z,20
2022-11-14T01:24:42.550Z,20.02
2022-11-14T01:31:12.557Z,19.98
2022-11-14T01:37:36.097Z,19.99
2022-11-14T01:44:09.931Z,19.98
2022-11-14T01:51:00.027Z,20.02
2022-11-14T01:57:47.648Z,19.96
2022-11-14T02:04:28.548Z,20
2022-11-14T02:11:04.556Z,19.98
2022-11-14T02:17:40.704Z,20.01
2022-11-14T02:24:06.521Z,19.98
2022-11-14T02:30:31.867Z,19.95
2022-11-14T02:36:59.799Z,19.96
2022-11-14T02:43:26.445Z,19.98
2022-11-14T02:49:48.912Z,19.94
2022-11-14T02:56:09.819Z,19.94
2022-11-14T03:02:28.603Z,19.92
2022-11-14T03:08:51.261Z,19.92
2022-11-14T03:15:15.599Z,19.94
2022-11-14T03:21:42.921Z,19.94
2022-11-14T03:28:12.585Z,19.91
2022-11-14T03:34:41.763Z,19.92
2022-11-14T03:41:04.603Z,19.89
2022-11-14T03:47:31.494Z,19.9
2022-11-14T03:53:57.702Z,19.89
2022-11-14T04:00:24.532Z,19.88
2022-11-14T04:06:58.682Z,19.89
2022-11-14T04:13:31.143Z,19.94
2022-11-14T04:19:55.990Z,19.93
2022-11-14T04:26:24.650Z,19.88
2022-11-14T04:32:43.734Z,19.86
2022-11-14T04:39:08.612Z,19.87
2022-11-14T04:45:34.564Z,19.83
2022-11-14T04:52:06.619Z,19.85
2022-11-14T04:58:38.537Z,19.91
2022-11-14T05:05:04.568Z,19.86
2022-11-14T05:11:28.918Z,19.88
2022-11-14T05:17:51.542Z,19.84
2022-11-14T05:24:11.525Z,19.84
2022-11-14T05:30:32.711Z,19.85
2022-11-14T05:36:54.688Z,19.87
2022-11-14T05:43:14.173Z,19.84
2022-11-14T05:49:35.678Z,19.8
2022-11-14T05:56:10.518Z,20
2022-11-14T06:02:35.646Z,20.7
2022-11-14T06:09:00.679Z,21.09
2022-11-14T06:15:35.648Z,21.46
2022-11-14T06:22:02.607Z,21.57
2022-11-14T06:28:23.246Z,21.87
2022-11-14T06:34:51.739Z,22.07
2022-11-14T06:41:11.648Z,22.33
2022-11-14T06:47:45.831Z,22.44
2022-11-14T06:54:13.899Z,22.47
2022-11-14T07:00:40.050Z,22.44
2022-11-14T07:07:08.735Z,22.34
2022-11-14T07:13:45.713Z,22.36
2022-11-14T07:20:18.758Z,22.23
2022-11-14T07:26:52.167Z,22.12
2022-11-14T07:33:12.717Z,22.06
2022-11-14T07:39:39.564Z,21.93
2022-11-14T07:46:11.627Z,21.89
2022-11-14T07:52:39.914Z,21.77
2022-11-14T07:59:17.609Z,21.7
2022-11-14T08:05:46.039Z,21.62
2022-11-14T08:12:10.784Z,21.54
2022-11-14T08:18:38.647Z,21.44
2022-11-14T08:24:59.716Z,21.36
2022-11-14T08:31:24.733Z,21.29
2022-11-14T08:37:50.954Z,21.25
2022-11-14T08:44:16.678Z,21.21
2022-11-14T08:50:46.597Z,21.22
2022-11-14T08:57:06.634Z,21.08
2022-11-14T09:03:31.894Z,21.18
2022-11-14T09:09:53.789Z,21.02
2022-11-14T09:16:15.803Z,21.02
2022-11-14T09:22:36.856Z,21.02
2022-11-14T09:28:57.711Z,20.99
2022-11-14T09:35:32.049Z,20.91
2022-11-14T09:42:14.388Z,20.84
2022-11-14T09:49:13.789Z,20.73
2022-11-14T09:56:17.790Z,20.71
2022-11-14T10:02:59.747Z,20.68
2022-11-14T10:10:11.709Z,20.65
2022-11-14T10:17:15.307Z,20.54
2022-11-14T10:24:24.796Z,20.58
2022-11-14T10:31:24.940Z,20.49
2022-11-14T10:38:39.264Z,20.37
2022-11-14T10:45:42.174Z,20.45
2022-11-14T10:52:48.817Z,20.34
2022-11-14T10:59:29.753Z,20.4
2022-11-14T11:13:19.870Z,20.34
2022-11-14T11:20:31.349Z,20.31
2022-11-14T11:27:13.822Z,20.28
2022-11-14T11:33:56.785Z,20.3
2022-11-14T11:40:41.855Z,20.33
2022-11-14T11:47:36.584Z,20.38
2022-11-14T11:54:27.816Z,20.39
2022-11-14T12:01:20.803Z,20.4
2022-11-14T12:08:07.717Z,20.31
2022-11-14T12:15:11.258Z,20.37
2022-11-14T12:22:10.827Z,20.24
2022-11-14T12:29:03.162Z,20.17
2022-11-14T12:36:01.912Z,20.2
2022-11-14T12:43:02.855Z,20.07
2022-11-14T12:50:17.092Z,20.02
2022-11-14T12:58:21.888Z,19.8
2022-11-14T13:06:26.690Z,19.7
2022-11-14T13:14:35.261Z,19.92
2022-11-14T13:22:35.042Z,19.92
2022-11-14T13:30:23.347Z,19.99
2022-11-14T13:38:14.912Z,20.08
2022-11-14T13:46:59.883Z,21.15
2022-11-14T13:54:03.085Z,21.13
2022-11-14T14:01:06.758Z,21.4
2022-11-14T14:08:22.143Z,21.39
2022-11-14T14:15:30.631Z,21.16
2022-11-14T14:22:47.529Z,21.29
2022-11-14T14:30:06.168Z,21.53
2022-11-14T14:37:02.721Z,21.57
2022-11-14T14:44:08.539Z,21.58
2022-11-14T14:51:52.122Z,21.1
2022-11-14T15:00:06.275Z,20.94
2022-11-14T15:08:24.145Z,20.79
2022-11-14T15:16:20.001Z,20.84
2022-11-14T15:24:38.853Z,20.89
2022-11-14T15:32:46.973Z,20.86
2022-11-14T15:40:53.978Z,20.69
2022-11-14T15:48:41.696Z,20.75
2022-11-14T15:56:14.084Z,20.73
2022-11-14T16:03:58.104Z,20.81
2022-11-14T16:11:07.640Z,20.75
2022-11-14T16:18:18.092Z,20.95
2022-11-14T16:25:08.592Z,20.75
2022-11-14T16:32:16.066Z,20.75
2022-11-14T16:39:04.192Z,20.76
2022-11-14T16:46:04.106Z,20.7
2022-11-14T16:53:13.738Z,20.69
2022-11-14T17:00:33.847Z,20.7
2022-11-14T17:07:41.037Z,20.63
2022-11-14T17:14:47.565Z,20.61
2022-11-14T17:21:50.686Z,20.53
2022-11-14T17:28:53.569Z,20.63
2022-11-14T17:35:58.317Z,20.51
2022-11-14T17:42:54.813Z,20.54
2022-11-14T17:50:16.454Z,20.53
2022-11-14T17:57:34.175Z,20.54
2022-11-14T18:04:46.662Z,20.57
2022-11-14T18:11:49.564Z,20.58
2022-11-14T18:18:49.878Z,20.48
2022-11-14T18:25:45.558Z,20.39
2022-11-14T18:32:44.196Z,20.45
2022-11-14T18:39:46.779Z,20.39
2022-11-14T18:46:45.691Z,20.29
2022-11-14T18:53:39.977Z,20.28
2022-11-14T19:00:48.721Z,20.26
2022-11-14T19:07:48.543Z,20.24
2022-11-14T19:14:47.201Z,20.47
2022-11-14T19:21:45.893Z,20.29
2022-11-14T19:28:48.812Z,20.23
2022-11-14T19:35:51.343Z,20.29
2022-11-14T19:42:50.719Z,20.15
2022-11-14T19:49:52.163Z,20.14
2022-11-14T19:57:00.606Z,19.95
2022-11-14T20:03:52.910Z,20.06
2022-11-14T20:11:03.137Z,20.08
2022-11-14T20:18:16.071Z,20.07
2022-11-14T20:25:24.895Z,20.06
2022-11-14T20:32:28.861Z,19.95
2022-11-14T20:39:23.926Z,20.09
2022-11-14T20:46:18.274Z,20.11
2022-11-14T20:53:27.103Z,20.03
2022-11-14T21:00:29.841Z,20.01
2022-11-14T21:07:31.144Z,20.06
2022-11-14T21:14:42.958Z,20.05
2022-11-14T21:21:36.829Z,20.12
2022-11-14T21:28:35.048Z,20.3
2022-11-14T21:35:51.988Z,20.28
2022-11-14T21:42:46.684Z,20.24
2022-11-14T21:50:01.050Z,20.28
2022-11-14T21:57:07.011Z,20.2
2022-11-14T22:04:18.665Z,20.24
2022-11-14T22:11:35.321Z,20.12
2022-11-14T22:18:30.161Z,20.3
2022-11-14T22:25:43.077Z,20.3
2022-11-14T22:32:52.128Z,20.35
2022-11-14T22:39:57.311Z,20.35
2022-11-14T22:47:02.692Z,20.35
2022-11-14T22:54:16.116Z,20.4
2022-11-14T23:01:32.194Z,20.36
2022-11-14T23:08:31.806Z,20.36
2022-11-14T23:15:42.336Z,20.31
2022-11-14T23:22:39.772Z,20.22
2022-11-14T23:29:57.907Z,20.24
2022-11-14T23:37:19.258Z,20.22
2022-11-14T23:44:12.344Z,20.25
2022-11-14T23:50:48.229Z,20.2
2022-11-14T23:58:01.917Z,20.15
